Time;durP1;ratioP1;P1;durP2;ratioP2;P2;SDS_P1;SDS_P2;PMS_P1;PMS_P2;Temp;Humidity;BMP_temperature;BMP_pressure;BME280_temperature;BME280_humidity;BME280_pressure;Samples;Min_cycle;Max_cycle;Signal;HPM_P1;HPM_P2
2023/01/27 00:01:01;;;;;;;;;;;-0.70;99.90;;;;;;5049729;28;20266;-81
2023/01/27 00:03:27;;;;;;;;;;;-0.60;99.90;;;;;;5052824;28;19905;-80
2023/01/27 00:05:53;;;;;;;;;;;-0.60;99.90;;;;;;5054924;28;19900;-81
2023/01/27 00:08:19;;;;;;;;;;;-0.70;99.90;;;;;;5055082;28;19905;-80
2023/01/27 00:10:45;;;;;;;;;;;-0.60;99.90;;;;;;5036740;28;19909;-80
2023/01/27 00:13:27;;;;;;;;;;;-0.60;99.90;;;;;;5054290;28;20353;-80
2023/01/27 00:15:53;;;;;;;;;;;-0.60;99.90;;;;;;5052970;28;19909;-81
2023/01/27 00:18:19;;;;;;;;;;;-0.60;99.90;;;;;;5052408;28;20345;-81
2023/01/27 00:26:16;;;;;;;;;;;-0.60;99.90;;;;;;5047015;28;19912;-80
2023/01/27 00:28:43;;;;;;;;;;;-0.60;99.20;;;;;;5050179;28;19904;-80
2023/01/27 00:34:00;;;;;;;;;;;-0.60;97.60;;;;;;5052139;28;19912;-80
2023/01/27 00:36:28;;;;;;;;;;;-0.60;97.60;;;;;;5051682;28;19904;-80
2023/01/27 00:38:54;;;;;;;;;;;-0.60;97.00;;;;;;5025378;28;20308;-80
2023/01/27 00:41:20;;;;;;;;;;;-0.60;96.70;;;;;;5025022;28;20345;-80
2023/01/27 00:43:46;;;;;;;;;;;-0.60;95.20;;;;;;5008248;28;19912;-80
2023/01/27 00:46:13;;;;;;;;;;;-0.60;94.90;;;;;;5014158;28;19927;-80
2023/01/27 00:48:39;;;;;;;;;;;-0.60;94.60;;;;;;5029915;28;20381;-81
2023/01/27 00:51:05;;;;;;;;;;;-0.60;94.30;;;;;;5013420;28;19926;-80
2023/01/27 00:53:31;;;;;;;;;;;-0.60;94.20;;;;;;5010229;28;20009;-80
2023/01/27 00:55:57;;;;;;;;;;;-0.50;93.90;;;;;;5035077;28;20335;-81
2023/01/27 00:58:24;;;;;;;;;;;-0.60;92.00;;;;;;5034999;28;19912;-80
2023/01/27 01:00:52;;;;;;;;;;;-0.60;92.30;;;;;;5016960;28;20044;-80
2023/01/27 01:03:18;;;;;;;;;;;-0.60;93.10;;;;;;5017582;28;19905;-80
2023/01/27 01:05:44;;;;;;;;;;;-0.50;92.90;;;;;;5001759;28;19963;-80
2023/01/27 01:08:10;;;;;;;;;;;-0.50;92.90;;;;;;5017911;28;19987;-80
2023/01/27 01:10:36;;;;;;;;;;;-0.50;92.20;;;;;;5045388;28;19912;-80
2023/01/27 01:13:02;;;;;;;;;;;-0.50;91.20;;;;;;5054940;28;19905;-80
2023/01/27 01:15:28;;;;;;;;;;;-0.50;91.10;;;;;;5055328;28;19905;-80
2023/01/27 01:17:54;;;;;;;;;;;-0.50;90.00;;;;;;5054353;28;20342;-80
2023/01/27 01:20:21;;;;;;;;;;;-0.50;89.60;;;;;;5054679;28;19912;-80
2023/01/27 01:22:47;;;;;;;;;;;-0.50;90.10;;;;;;5053668;28;19909;-81
2023/01/27 01:25:13;;;;;;;;;;;-0.50;90.50;;;;;;5038329;28;19912;-80
2023/01/27 01:27:39;;;;;;;;;;;-0.50;88.80;;;;;;5038652;28;19905;-82
2023/01/27 01:30:05;;;;;;;;;;;-0.50;88.20;;;;;;5038373;28;19912;-79
2023/01/27 01:32:31;;;;;;;;;;;-0.50;87.20;;;;;;5053117;28;19920;-80
2023/01/27 01:34:57;;;;;;;;;;;-0.50;85.50;;;;;;5053836;28;19936;-80
2023/01/27 01:37:24;;;;;;;;;;;-0.50;84.30;;;;;;5069438;28;19952;-79
2023/01/27 01:39:50;;;;;;;;;;;-0.50;83.60;;;;;;5055033;28;19905;-80
2023/01/27 01:42:16;;;;;;;;;;;-0.50;84.70;;;;;;5054647;28;20350;-80
2023/01/27 01:44:42;;;;;;;;;;;-0.60;83.60;;;;;;5030206;28;19908;-80
2023/01/27 01:47:13;;;;;;;;;;;-0.60;82.60;;;;;;5038331;28;19912;-80
2023/01/27 01:49:40;;;;;;;;;;;-0.60;83.50;;;;;;5037973;28;19905;-80
2023/01/27 01:52:09;;;;;;;;;;;-0.50;85.30;;;;;;5052908;28;19917;-80
2023/01/27 01:54:38;;;;;;;;;;;-0.50;86.70;;;;;;5060525;28;19917;-80
2023/01/27 01:57:07;;;;;;;;;;;-0.50;86.40;;;;;;5071169;28;19901;-80
2023/01/27 01:59:48;;;;;;;;;;;-0.50;84.50;;;;;;5072439;28;19915;-80
2023/01/27 02:02:16;;;;;;;;;;;-0.50;83.60;;;;;;5047491;28;19920;-79
2023/01/27 02:04:45;;;;;;;;;;;-0.50;81.80;;;;;;5040317;28;19932;-80
2023/01/27 02:07:17;;;;;;;;;;;-0.50;79.20;;;;;;5044805;28;19904;-80
2023/01/27 02:09:43;;;;;;;;;;;-0.50;77.40;;;;;;5053472;28;20348;-81
2023/01/27 02:12:09;;;;;;;;;;;-0.50;77.70;;;;;;5029373;28;19913;-79
2023/01/27 02:14:37;;;;;;;;;;;-0.50;77.70;;;;;;5039923;28;19905;-80
2023/01/27 02:17:04;;;;;;;;;;;-0.50;77.50;;;;;;5052894;28;19908;-80
2023/01/27 02:19:36;;;;;;;;;;;-0.50;80.10;;;;;;5053699;28;19923;-80
2023/01/27 02:22:03;;;;;;;;;;;-0.50;79.40;;;;;;5067280;28;19912;-80
2023/01/27 02:24:36;;;;;;;;;;;-0.50;78.10;;;;;;5036439;28;19901;-79
2023/01/27 02:27:03;;;;;;;;;;;-0.50;79.20;;;;;;5053105;28;19919;-80
2023/01/27 02:29:29;;;;;;;;;;;-0.50;79.30;;;;;;5040033;28;19912;-80
2023/01/27 02:31:55;;;;;;;;;;;-0.50;80.70;;;;;;5037377;28;19912;-80
2023/01/27 02:34:24;;;;;;;;;;;-0.50;83.00;;;;;;5040123;28;19997;-80
2023/01/27 02:36:54;;;;;;;;;;;-0.40;84.30;;;;;;5035762;28;19904;-80
2023/01/27 02:39:21;;;;;;;;;;;-0.50;83.90;;;;;;5069750;28;19905;-80
2023/01/27 02:41:52;;;;;;;;;;;-0.50;84.10;;;;;;5050249;28;19905;-80
2023/01/27 02:44:19;;;;;;;;;;;-0.50;83.90;;;;;;5052918;28;20342;-80
2023/01/27 02:46:45;;;;;;;;;;;-0.50;84.90;;;;;;5053878;28;19928;-80
2023/01/27 02:49:11;;;;;;;;;;;-0.50;85.50;;;;;;5053287;28;19968;-80
2023/01/27 02:51:38;;;;;;;;;;;-0.50;86.40;;;;;;5062999;28;20369;-80
2023/01/27 02:54:05;;;;;;;;;;;-0.50;86.70;;;;;;5034411;28;20346;-79
2023/01/27 02:56:31;;;;;;;;;;;-0.50;86.60;;;;;;5046526;28;19904;-80
2023/01/27 02:58:57;;;;;;;;;;;-0.50;86.20;;;;;;5018196;28;19904;-80
2023/01/27 03:01:31;;;;;;;;;;;-0.50;86.20;;;;;;5028339;28;20324;-80
2023/01/27 03:03:58;;;;;;;;;;;-0.40;86.20;;;;;;5028172;28;20369;-80
2023/01/27 03:06:24;;;;;;;;;;;-0.50;86.70;;;;;;5005135;28;20413;-81
2023/01/27 03:08:50;;;;;;;;;;;-0.40;86.20;;;;;;5024007;28;19909;-81
2023/01/27 03:12:18;;;;;;;;;;;-0.50;83.90;;;;;;5049712;28;20004;-80
2023/01/27 03:14:03;;;;;;;;;;;-0.40;84.00;;;;;;5034575;28;19913;-80
2023/01/27 03:19:15;;;;;;;;;;;-0.40;84.30;;;;;;5033057;28;19904;-81
2023/01/27 03:21:44;;;;;;;;;;;-0.40;83.80;;;;;;5035447;28;19909;-80
2023/01/27 03:24:10;;;;;;;;;;;-0.40;83.40;;;;;;5019494;28;19908;-80
2023/01/27 03:26:37;;;;;;;;;;;-0.40;82.40;;;;;;5051259;28;19904;-80
2023/01/27 03:31:50;;;;;;;;;;;-0.40;82.40;;;;;;5033432;28;20374;-80
2023/01/27 03:34:17;;;;;;;;;;;-0.40;83.20;;;;;;5027632;28;19905;-79
2023/01/27 03:47:48;;;;;;;;;;;-0.40;80.50;;;;;;5045989;28;20338;-80
2023/01/27 03:50:18;;;;;;;;;;;-0.40;81.80;;;;;;5052030;28;19901;-80
2023/01/27 03:53:01;;;;;;;;;;;-0.40;81.00;;;;;;5045387;28;19917;-81
2023/01/27 03:55:29;;;;;;;;;;;-0.30;80.60;;;;;;5032615;28;19913;-81
2023/01/27 03:57:55;;;;;;;;;;;-0.40;80.80;;;;;;5031555;28;19909;-80
2023/01/27 04:00:22;;;;;;;;;;;-0.30;80.90;;;;;;5031778;28;20227;-80
2023/01/27 04:08:17;;;;;;;;;;;-0.30;79.30;;;;;;5064583;28;19905;-80
2023/01/27 04:11:53;;;;;;;;;;;-0.30;78.90;;;;;;5061186;28;19908;-80
2023/01/27 04:13:29;;;;;;;;;;;-0.40;78.90;;;;;;5050979;28;19911;-80
2023/01/27 04:15:55;;;;;;;;;;;-0.30;80.80;;;;;;5052079;28;20261;-79
2023/01/27 04:18:21;;;;;;;;;;;-0.30;81.90;;;;;;5046493;28;19905;-80
2023/01/27 04:20:47;;;;;;;;;;;-0.30;83.70;;;;;;5034481;28;19905;-81
2023/01/27 04:23:13;;;;;;;;;;;-0.30;85.00;;;;;;5067431;28;20345;-79
2023/01/27 04:25:39;;;;;;;;;;;-0.30;86.90;;;;;;5050987;28;19913;-80
2023/01/27 04:28:07;;;;;;;;;;;-0.30;88.20;;;;;;5051335;28;20276;-80
2023/01/27 04:30:33;;;;;;;;;;;-0.30;89.80;;;;;;5032289;28;20003;-80
2023/01/27 04:33:04;;;;;;;;;;;-0.30;90.30;;;;;;5049781;28;20257;-80
2023/01/27 04:35:30;;;;;;;;;;;-0.30;90.70;;;;;;5052606;28;19905;-80
2023/01/27 04:37:56;;;;;;;;;;;-0.30;91.30;;;;;;5051505;28;20296;-80
2023/01/27 04:40:22;;;;;;;;;;;-0.30;92.00;;;;;;5033384;28;19905;-80
2023/01/27 04:42:48;;;;;;;;;;;-0.30;92.30;;;;;;5050651;28;19952;-81
2023/01/27 04:45:14;;;;;;;;;;;-0.30;93.00;;;;;;5034395;28;19905;-81
2023/01/27 04:47:40;;;;;;;;;;;-0.30;93.50;;;;;;5049306;28;19905;-80
2023/01/27 04:50:07;;;;;;;;;;;-0.30;93.60;;;;;;5049338;28;19908;-81
2023/01/27 04:52:33;;;;;;;;;;;-0.20;94.10;;;;;;5027944;28;19931;-81
2023/01/27 04:54:59;;;;;;;;;;;-0.20;94.40;;;;;;5033666;28;19900;-80
2023/01/27 04:57:26;;;;;;;;;;;-0.20;94.90;;;;;;5050457;28;19947;-80
2023/01/27 04:59:52;;;;;;;;;;;-0.30;95.80;;;;;;5048287;28;20246;-81
2023/01/27 05:02:18;;;;;;;;;;;-0.20;96.50;;;;;;5047809;28;20003;-79
2023/01/27 05:04:44;;;;;;;;;;;-0.20;96.80;;;;;;5050196;28;20273;-80
2023/01/27 05:07:10;;;;;;;;;;;-0.20;96.50;;;;;;5050223;28;19991;-81
2023/01/27 05:09:36;;;;;;;;;;;-0.20;96.60;;;;;;5050540;28;20075;-81
2023/01/27 05:12:02;;;;;;;;;;;-0.20;97.20;;;;;;5051398;28;19955;-80
2023/01/27 05:14:28;;;;;;;;;;;-0.20;96.70;;;;;;5044929;28;20345;-80
2023/01/27 05:16:54;;;;;;;;;;;-0.20;96.50;;;;;;5030968;28;19917;-80
2023/01/27 05:19:19;;;;;;;;;;;-0.20;96.70;;;;;;5032658;28;19912;-80
2023/01/27 05:21:45;;;;;;;;;;;-0.20;97.00;;;;;;5048073;28;20376;-79
2023/01/27 05:24:11;;;;;;;;;;;-0.20;96.90;;;;;;5045264;28;20346;-79
2023/01/27 05:26:37;;;;;;;;;;;-0.20;96.90;;;;;;5051458;28;19905;-80
2023/01/27 05:29:03;;;;;;;;;;;-0.20;96.20;;;;;;5050154;28;19909;-82
2023/01/27 05:31:32;;;;;;;;;;;-0.20;95.60;;;;;;5047899;28;20018;-82
2023/01/27 05:33:59;;;;;;;;;;;-0.10;95.40;;;;;;5050593;28;19909;-82
2023/01/27 05:36:25;;;;;;;;;;;-0.10;95.30;;;;;;5051393;28;19904;-82
2023/01/27 05:38:53;;;;;;;;;;;-0.10;94.10;;;;;;5028365;28;19905;-82
2023/01/27 05:41:19;;;;;;;;;;;-0.10;92.50;;;;;;5046779;28;19908;-82
2023/01/27 05:43:46;;;;;;;;;;;-0.10;91.30;;;;;;5055001;28;19904;-82
2023/01/27 05:46:13;;;;;;;;;;;-0.10;90.80;;;;;;5054526;28;19904;-82
2023/01/27 05:48:40;;;;;;;;;;;-0.10;90.40;;;;;;5038188;28;19908;-80
2023/01/27 05:51:06;;;;;;;;;;;-0.10;90.20;;;;;;5049006;28;19904;-77
2023/01/27 05:53:33;;;;;;;;;;;-0.10;89.30;;;;;;5030639;28;19905;-81
2023/01/27 05:55:59;;;;;;;;;;;-0.10;86.90;;;;;;5052199;28;20369;-82
2023/01/27 05:58:25;;;;;;;;;;;-0.10;86.30;;;;;;5055145;28;20365;-82
2023/01/27 06:00:52;;;;;;;;;;;-0.10;85.70;;;;;;5042103;28;19912;-82
2023/01/27 06:03:19;;;;;;;;;;;-0.10;85.10;;;;;;5055809;28;19905;-81
2023/01/27 06:05:55;;;;;;;;;;;-0.10;84.60;;;;;;5055775;28;19905;-82
2023/01/27 06:08:25;;;;;;;;;;;-0.10;84.10;;;;;;5041751;28;19905;-81
2023/01/27 06:10:51;;;;;;;;;;;-0.10;83.30;;;;;;5054653;28;19907;-80
2023/01/27 06:13:19;;;;;;;;;;;0.00;82.20;;;;;;5055030;28;19912;-80
2023/01/27 06:15:46;;;;;;;;;;;0.00;81.90;;;;;;5055284;28;19912;-76
2023/01/27 06:18:12;;;;;;;;;;;0.00;82.20;;;;;;5058481;28;19901;-76
2023/01/27 06:20:39;;;;;;;;;;;0.00;81.30;;;;;;5061808;28;19905;-77
2023/01/27 06:23:05;;;;;;;;;;;0.00;81.00;;;;;;5063074;28;19931;-77
2023/01/27 06:25:34;;;;;;;;;;;0.00;81.00;;;;;;5043777;28;20231;-77
2023/01/27 06:28:00;;;;;;;;;;;0.00;79.80;;;;;;5039838;28;19905;-78
2023/01/27 06:30:26;;;;;;;;;;;0.00;77.60;;;;;;5049592;28;19909;-77
2023/01/27 06:32:52;;;;;;;;;;;0.00;75.80;;;;;;5052740;28;19912;-78
2023/01/27 06:35:18;;;;;;;;;;;0.00;75.20;;;;;;5054285;28;20288;-77
2023/01/27 06:37:44;;;;;;;;;;;0.00;74.20;;;;;;5069146;28;19935;-77
2023/01/27 06:40:10;;;;;;;;;;;0.00;71.90;;;;;;5060343;28;20354;-78
2023/01/27 06:42:36;;;;;;;;;;;0.10;67.70;;;;;;5038127;28;19905;-77
2023/01/27 06:45:03;;;;;;;;;;;0.10;63.20;;;;;;5037565;28;19947;-78
2023/01/27 06:47:28;;;;;;;;;;;0.10;58.80;;;;;;5053966;28;19912;-78
2023/01/27 06:49:54;;;;;;;;;;;0.10;56.10;;;;;;5044876;28;19901;-77
2023/01/27 06:52:20;;;;;;;;;;;0.10;54.10;;;;;;5052643;28;20011;-77
2023/01/27 06:54:46;;;;;;;;;;;0.10;53.00;;;;;;5050196;28;19911;-77
2023/01/27 06:57:12;;;;;;;;;;;0.10;52.50;;;;;;5050836;28;19943;-77
2023/01/27 06:59:39;;;;;;;;;;;0.10;51.10;;;;;;5052545;28;19905;-77
2023/01/27 07:02:05;;;;;;;;;;;0.10;50.50;;;;;;5052944;28;19913;-77
2023/01/27 07:04:31;;;;;;;;;;;0.10;50.50;;;;;;5053728;28;19947;-77
2023/01/27 07:06:57;;;;;;;;;;;0.10;50.90;;;;;;5052979;28;19904;-78
2023/01/27 07:09:23;;;;;;;;;;;0.20;50.70;;;;;;5052876;28;20428;-77
2023/01/27 07:11:50;;;;;;;;;;;0.20;50.00;;;;;;5048116;28;19924;-77
2023/01/27 07:14:16;;;;;;;;;;;0.20;48.20;;;;;;5055795;28;19911;-77
2023/01/27 07:16:42;;;;;;;;;;;0.20;47.40;;;;;;5053189;28;19923;-77
2023/01/27 07:19:08;;;;;;;;;;;0.20;46.60;;;;;;5047033;28;19983;-76
2023/01/27 07:21:34;;;;;;;;;;;0.20;46.10;;;;;;5054172;28;19916;-77
2023/01/27 07:24:00;;;;;;;;;;;0.20;45.50;;;;;;5069525;28;19905;-77
2023/01/27 07:26:26;;;;;;;;;;;0.20;45.80;;;;;;5035804;28;19995;-78
2023/01/27 07:28:52;;;;;;;;;;;0.20;45.40;;;;;;5033476;28;20319;-76
2023/01/27 07:31:18;;;;;;;;;;;0.20;44.50;;;;;;5051246;28;19905;-76
2023/01/27 07:33:44;;;;;;;;;;;0.20;43.90;;;;;;5052119;28;20353;-76
2023/01/27 07:36:10;;;;;;;;;;;0.20;43.10;;;;;;5051039;28;19904;-77
2023/01/27 07:38:37;;;;;;;;;;;0.20;41.20;;;;;;5053463;28;19905;-77
2023/01/27 07:41:04;;;;;;;;;;;0.30;38.40;;;;;;5052076;28;20346;-77
2023/01/27 07:43:31;;;;;;;;;;;0.30;37.10;;;;;;5053614;28;19905;-76
2023/01/27 07:45:57;;;;;;;;;;;0.30;34.60;;;;;;5039737;28;19919;-77
2023/01/27 07:48:23;;;;;;;;;;;0.40;31.00;;;;;;5052107;28;19908;-76
2023/01/27 07:50:49;;;;;;;;;;;0.40;28.40;;;;;;5051602;28;19944;-77
2023/01/27 07:53:15;;;;;;;;;;;0.40;27.10;;;;;;5047879;28;19913;-77
2023/01/27 07:55:41;;;;;;;;;;;0.40;25.80;;;;;;5052527;28;19916;-76
2023/01/27 07:58:07;;;;;;;;;;;0.40;23.70;;;;;;5051299;28;19909;-77
2023/01/27 08:00:33;;;;;;;;;;;0.40;21.00;;;;;;5051262;28;20281;-77
2023/01/27 08:03:00;;;;;;;;;;;0.40;19.90;;;;;;5052376;28;19911;-76
2023/01/27 08:05:28;;;;;;;;;;;0.50;17.20;;;;;;5053045;28;20260;-76
2023/01/27 08:07:54;;;;;;;;;;;0.50;15.40;;;;;;5042684;28;19991;-77
2023/01/27 08:10:21;;;;;;;;;;;0.40;14.20;;;;;;5051309;28;20249;-76
2023/01/27 08:12:47;;;;;;;;;;;0.40;13.40;;;;;;5064180;28;19912;-77
2023/01/27 08:15:13;;;;;;;;;;;0.40;11.10;;;;;;5051688;28;20011;-77
2023/01/27 08:17:39;;;;;;;;;;;0.50;9.70;;;;;;5052221;28;19908;-77
2023/01/27 08:20:05;;;;;;;;;;;0.50;8.50;;;;;;5050875;28;19944;-77
2023/01/27 08:22:31;;;;;;;;;;;0.50;6.50;;;;;;5050117;28;19905;-76
2023/01/27 08:24:57;;;;;;;;;;;0.60;5.30;;;;;;5046217;28;19955;-77
2023/01/27 08:27:23;;;;;;;;;;;0.60;4.50;;;;;;5050181;28;20280;-77
2023/01/27 08:29:49;;;;;;;;;;;0.70;2.70;;;;;;5051335;28;19908;-78
2023/01/27 08:32:15;;;;;;;;;;;0.70;1.20;;;;;;5040588;28;19917;-77
2023/01/27 08:34:41;;;;;;;;;;;0.70;1.00;;;;;;5031838;28;19901;-76
2023/01/27 08:37:07;;;;;;;;;;;0.70;1.00;;;;;;5032156;28;19913;-77
2023/01/27 08:39:33;;;;;;;;;;;0.80;1.00;;;;;;5032071;28;20334;-76
2023/01/27 08:41:59;;;;;;;;;;;0.80;1.00;;;;;;5031077;28;19905;-78
2023/01/27 08:44:27;;;;;;;;;;;0.80;1.00;;;;;;5032442;28;19919;-76
2023/01/27 08:46:54;;;;;;;;;;;0.80;1.00;;;;;;5031603;28;19916;-76
2023/01/27 08:49:20;;;;;;;;;;;0.80;1.00;;;;;;5032598;28;19908;-76
2023/01/27 08:51:46;;;;;;;;;;;0.80;1.00;;;;;;5033346;28;19909;-76
2023/01/27 08:54:12;;;;;;;;;;;0.90;1.00;;;;;;5051200;28;19913;-77
2023/01/27 08:56:38;;;;;;;;;;;0.90;1.00;;;;;;5032159;28;19927;-74
2023/01/27 08:59:04;;;;;;;;;;;0.90;1.00;;;;;;5051430;28;19905;-76
2023/01/27 09:01:33;;;;;;;;;;;1.00;1.00;;;;;;5050764;28;20337;-77
2023/01/27 09:03:59;;;;;;;;;;;1.10;1.00;;;;;;5051480;28;19904;-77
2023/01/27 09:06:25;;;;;;;;;;;1.00;1.00;;;;;;5037180;28;20350;-77
2023/01/27 09:09:09;;;;;;;;;;;1.10;1.00;;;;;;5051991;28;19919;-76
2023/01/27 09:11:39;;;;;;;;;;;1.10;1.00;;;;;;5050621;28;19905;-76
2023/01/27 09:14:05;;;;;;;;;;;1.20;1.00;;;;;;5053344;28;19913;-76
2023/01/27 09:16:31;;;;;;;;;;;1.20;1.00;;;;;;5013527;28;19983;-77
2023/01/27 09:18:57;;;;;;;;;;;1.30;1.00;;;;;;5013397;28;19917;-77
2023/01/27 09:21:23;;;;;;;;;;;1.30;1.00;;;;;;5012351;28;19909;-76
2023/01/27 09:23:50;;;;;;;;;;;1.30;1.00;;;;;;5015463;28;19912;-76
2023/01/27 09:26:16;;;;;;;;;;;1.30;1.00;;;;;;5011728;28;20428;-77
2023/01/27 09:28:42;;;;;;;;;;;1.40;1.00;;;;;;5014083;28;19916;-76
2023/01/27 09:31:08;;;;;;;;;;;1.50;1.00;;;;;;5012034;28;19913;-76
2023/01/27 09:33:34;;;;;;;;;;;1.70;1.00;;;;;;5013746;28;19917;-76
2023/01/27 09:36:04;;;;;;;;;;;1.80;1.00;;;;;;5013311;28;19979;-76
2023/01/27 09:38:32;;;;;;;;;;;1.80;1.00;;;;;;5013580;28;20383;-76
2023/01/27 09:41:06;;;;;;;;;;;1.80;1.00;;;;;;5011843;28;19901;-77
2023/01/27 09:43:32;;;;;;;;;;;2.00;1.00;;;;;;5006986;28;20264;-77
2023/01/27 09:46:00;;;;;;;;;;;2.10;1.00;;;;;;4996755;28;19952;-76
2023/01/27 09:48:41;;;;;;;;;;;2.00;1.00;;;;;;5049899;28;19901;-76
2023/01/27 09:51:20;;;;;;;;;;;2.00;1.00;;;;;;5047206;28;19909;-77
2023/01/27 09:54:02;;;;;;;;;;;1.90;1.00;;;;;;5055660;28;20238;-76
2023/01/27 09:56:47;;;;;;;;;;;1.90;1.00;;;;;;5054001;28;19916;-76
2023/01/27 09:59:21;;;;;;;;;;;1.90;1.00;;;;;;5053270;28;19911;-76
2023/01/27 10:02:07;;;;;;;;;;;1.90;1.00;;;;;;5054927;28;19913;-77
2023/01/27 10:04:33;;;;;;;;;;;2.00;1.00;;;;;;5055184;28;19909;-76
2023/01/27 10:07:11;;;;;;;;;;;2.00;1.00;;;;;;5054664;28;20237;-76
2023/01/27 10:09:46;;;;;;;;;;;2.00;1.00;;;;;;5050351;28;20287;-77
2023/01/27 10:12:31;;;;;;;;;;;1.80;1.00;;;;;;5034572;28;20354;-76
2023/01/27 10:15:16;;;;;;;;;;;1.80;1.00;;;;;;5048642;28;19908;-77
2023/01/27 10:18:02;;;;;;;;;;;1.90;1.00;;;;;;5051168;28;19905;-77
2023/01/27 10:20:42;;;;;;;;;;;1.90;1.00;;;;;;5042686;28;19917;-78
2023/01/27 10:23:14;;;;;;;;;;;1.90;1.00;;;;;;5054773;28;19916;-78
2023/01/27 10:25:40;;;;;;;;;;;2.00;1.00;;;;;;5040698;28;19905;-76
2023/01/27 10:28:13;;;;;;;;;;;2.00;1.00;;;;;;5056368;28;19908;-76
2023/01/27 10:30:59;;;;;;;;;;;1.90;1.00;;;;;;5048827;28;19905;-78
2023/01/27 10:33:34;;;;;;;;;;;2.00;1.00;;;;;;5037099;28;19913;-76
2023/01/27 10:36:20;;;;;;;;;;;2.00;1.00;;;;;;5057027;28;19920;-75
2023/01/27 10:38:49;;;;;;;;;;;2.00;1.00;;;;;;5065389;28;19911;-76
2023/01/27 10:41:51;;;;;;;;;;;2.10;1.00;;;;;;5037913;28;19912;-76
2023/01/27 10:44:40;;;;;;;;;;;2.10;1.00;;;;;;5009713;28;19893;-78
2023/01/27 10:47:18;;;;;;;;;;;2.20;1.00;;;;;;5006456;28;19914;-76
2023/01/27 10:49:48;;;;;;;;;;;2.20;1.00;;;;;;5062109;28;19905;-82
2023/01/27 10:52:17;;;;;;;;;;;2.20;1.00;;;;;;5050454;28;19924;-77
2023/01/27 10:55:01;;;;;;;;;;;2.30;1.00;;;;;;5049469;28;19901;-77
2023/01/27 10:58:00;;;;;;;;;;;2.30;1.00;;;;;;5050818;28;19905;-77
2023/01/27 11:00:33;;;;;;;;;;;2.40;1.00;;;;;;5012115;28;20370;-76
2023/01/27 11:03:04;;;;;;;;;;;2.50;1.00;;;;;;5044261;28;19912;-77
2023/01/27 11:05:33;;;;;;;;;;;2.50;1.00;;;;;;5047020;28;19912;-76
2023/01/27 11:08:02;;;;;;;;;;;2.50;1.00;;;;;;5051595;28;19911;-76
2023/01/27 11:13:33;;;;;;;;;;;2.40;1.00;;;;;;5044198;28;20376;-75
2023/01/27 11:16:00;;;;;;;;;;;2.40;1.00;;;;;;5055150;28;19900;-76
2023/01/27 11:18:30;;;;;;;;;;;2.30;1.00;;;;;;5061014;28;19904;-76
2023/01/27 11:20:59;;;;;;;;;;;2.30;1.00;;;;;;5053549;28;19905;-76
2023/01/27 11:23:25;;;;;;;;;;;2.40;1.00;;;;;;5049727;28;19911;-76
2023/01/27 11:25:55;;;;;;;;;;;2.50;1.00;;;;;;5031738;28;20301;-76
2023/01/27 11:28:27;;;;;;;;;;;2.60;1.00;;;;;;5053199;28;20123;-76
2023/01/27 11:31:12;;;;;;;;;;;2.60;1.00;;;;;;5052252;28;20634;-76
2023/01/27 11:33:44;;;;;;;;;;;2.60;1.00;;;;;;5053439;28;19913;-77
2023/01/27 11:36:10;;;;;;;;;;;2.50;1.00;;;;;;5052208;28;19911;-77
2023/01/27 11:38:36;;;;;;;;;;;2.50;1.00;;;;;;5051725;28;19904;-76
2023/01/27 11:41:02;;;;;;;;;;;2.40;1.00;;;;;;5043318;28;19999;-83
2023/01/27 11:43:29;;;;;;;;;;;2.50;1.00;;;;;;5053070;28;19996;-76
2023/01/27 11:46:05;;;;;;;;;;;2.60;1.00;;;;;;5035227;28;20349;-77
2023/01/27 11:48:42;;;;;;;;;;;2.60;1.00;;;;;;5047302;28;19905;-76
2023/01/27 11:51:11;;;;;;;;;;;2.60;1.00;;;;;;5049913;28;19916;-76
2023/01/27 11:53:39;;;;;;;;;;;2.70;1.00;;;;;;5052722;28;19913;-77
2023/01/27 11:56:13;;;;;;;;;;;2.70;1.00;;;;;;5038932;28;19908;-77
2023/01/27 11:58:58;;;;;;;;;;;2.70;1.00;;;;;;5033004;28;19913;-77
2023/01/27 12:01:32;;;;;;;;;;;2.80;1.00;;;;;;5031326;28;20338;-76
2023/01/27 12:04:10;;;;;;;;;;;2.90;1.00;;;;;;5045387;28;19904;-75
2023/01/27 12:06:50;;;;;;;;;;;3.10;1.00;;;;;;5051791;28;19905;-76
2023/01/27 12:09:30;;;;;;;;;;;3.10;1.00;;;;;;5052870;28;19905;-77
2023/01/27 12:12:19;;;;;;;;;;;3.30;1.00;;;;;;5051356;28;19905;-76
2023/01/27 12:14:49;;;;;;;;;;;3.30;99.90;;;;;;5029633;28;20376;-76
2023/01/27 12:17:20;;;;;;;;;;;3.30;99.90;;;;;;5034181;28;20342;-77
2023/01/27 12:19:47;;;;;;;;;;;3.40;99.90;;;;;;5052460;28;19904;-76
2023/01/27 12:22:21;;;;;;;;;;;3.30;99.90;;;;;;5029617;28;20340;-76
2023/01/27 12:24:48;;;;;;;;;;;3.30;99.90;;;;;;5039266;28;19912;-76
2023/01/27 12:27:25;;;;;;;;;;;3.20;99.90;;;;;;5044017;28;19905;-77
2023/01/27 12:30:00;;;;;;;;;;;3.20;99.90;;;;;;5047633;28;19904;-76
2023/01/27 12:32:32;;;;;;;;;;;3.10;1.00;;;;;;5047909;28;19927;-78
2023/01/27 12:35:00;;;;;;;;;;;3.10;1.00;;;;;;5052541;28;19905;-77
2023/01/27 12:37:30;;;;;;;;;;;3.10;1.00;;;;;;5052103;28;20341;-77
2023/01/27 12:39:59;;;;;;;;;;;3.10;1.00;;;;;;5052105;28;19908;-77
2023/01/27 12:42:36;;;;;;;;;;;3.10;1.00;;;;;;5047785;28;20314;-77
2023/01/27 12:45:17;;;;;;;;;;;3.10;1.00;;;;;;5049411;28;19905;-75
2023/01/27 12:47:53;;;;;;;;;;;3.10;1.00;;;;;;5043230;28;19928;-76
2023/01/27 12:50:21;;;;;;;;;;;3.20;1.00;;;;;;5045250;28;20655;-76
2023/01/27 12:52:55;;;;;;;;;;;3.20;1.00;;;;;;5051969;28;19916;-75
2023/01/27 12:55:36;;;;;;;;;;;3.20;1.00;;;;;;5066637;28;19904;-76
2023/01/27 12:58:02;;;;;;;;;;;3.30;1.00;;;;;;5035671;28;20391;-76
2023/01/27 13:00:28;;;;;;;;;;;3.20;1.00;;;;;;5032094;28;19920;-77
2023/01/27 13:02:59;;;;;;;;;;;3.30;1.00;;;;;;5032651;28;19912;-77
2023/01/27 13:05:25;;;;;;;;;;;3.30;1.00;;;;;;5032114;28;20342;-76
2023/01/27 13:07:52;;;;;;;;;;;3.40;1.00;;;;;;5032242;28;19905;-75
2023/01/27 13:10:20;;;;;;;;;;;3.40;1.00;;;;;;5038929;28;20690;-79
2023/01/27 13:12:46;;;;;;;;;;;3.40;1.00;;;;;;5051348;28;19913;-77
2023/01/27 13:15:30;;;;;;;;;;;3.30;99.90;;;;;;5050253;28;19905;-78
2023/01/27 13:17:58;;;;;;;;;;;3.30;1.00;;;;;;5051850;28;19912;-74
2023/01/27 13:20:24;;;;;;;;;;;3.30;99.90;;;;;;5048309;28;19920;-75
2023/01/27 13:22:58;;;;;;;;;;;3.40;99.90;;;;;;5051445;28;19913;-76
2023/01/27 13:25:35;;;;;;;;;;;3.50;99.90;;;;;;5049596;28;19912;-77
2023/01/27 13:28:02;;;;;;;;;;;3.50;99.90;;;;;;5051606;28;19905;-78
2023/01/27 13:30:44;;;;;;;;;;;3.60;99.90;;;;;;5031223;28;20373;-78
2023/01/27 13:33:22;;;;;;;;;;;3.70;99.90;;;;;;5046295;28;19913;-78
2023/01/27 13:36:12;;;;;;;;;;;3.80;99.90;;;;;;5045515;28;20334;-78
2023/01/27 13:39:01;;;;;;;;;;;3.80;99.90;;;;;;5041296;28;19912;-76
2023/01/27 13:41:50;;;;;;;;;;;3.80;99.90;;;;;;5049727;28;20346;-77
2023/01/27 13:44:20;;;;;;;;;;;3.80;99.90;;;;;;5050803;28;20356;-77
2023/01/27 13:46:47;;;;;;;;;;;3.70;99.90;;;;;;5066550;28;19912;-78
2023/01/27 13:49:24;;;;;;;;;;;3.80;99.90;;;;;;5051004;28;19904;-80
2023/01/27 13:51:50;;;;;;;;;;;3.90;99.90;;;;;;5050112;28;19924;-80
2023/01/27 13:54:16;;;;;;;;;;;3.90;99.90;;;;;;5036828;28;19952;-80
2023/01/27 13:56:54;;;;;;;;;;;3.90;99.90;;;;;;5051980;28;19936;-77
2023/01/27 13:59:31;;;;;;;;;;;3.90;99.90;;;;;;5051078;28;20373;-78
2023/01/27 14:02:15;;;;;;;;;;;3.80;99.90;;;;;;5054906;28;19920;-76
2023/01/27 14:04:48;;;;;;;;;;;3.70;99.90;;;;;;5044478;28;19904;-77
2023/01/27 14:07:34;;;;;;;;;;;3.80;99.90;;;;;;5058031;28;19983;-79
2023/01/27 14:10:06;;;;;;;;;;;3.80;99.90;;;;;;5053180;28;19919;-78
2023/01/27 14:12:41;;;;;;;;;;;3.90;99.90;;;;;;5054607;28;19905;-79
2023/01/27 14:15:13;;;;;;;;;;;3.90;99.90;;;;;;5047133;28;19905;-78
2023/01/27 14:17:50;;;;;;;;;;;4.00;99.90;;;;;;5055377;28;19912;-79
2023/01/27 14:20:19;;;;;;;;;;;3.90;99.90;;;;;;5053388;28;19931;-80
2023/01/27 14:23:04;;;;;;;;;;;4.00;99.90;;;;;;5073956;28;19908;-79
2023/01/27 14:25:49;;;;;;;;;;;4.00;99.90;;;;;;5055002;28;19905;-79
2023/01/27 14:28:22;;;;;;;;;;;4.00;99.90;;;;;;5055202;28;19904;-78
2023/01/27 14:30:54;;;;;;;;;;;3.90;99.90;;;;;;5052202;28;19912;-78
2023/01/27 14:33:26;;;;;;;;;;;3.80;99.90;;;;;;5053701;28;20287;-79
2023/01/27 14:36:14;;;;;;;;;;;3.80;99.90;;;;;;5053772;28;20269;-78
2023/01/27 14:38:46;;;;;;;;;;;3.80;99.90;;;;;;5054575;28;19905;-78
2023/01/27 14:41:16;;;;;;;;;;;3.70;99.90;;;;;;5052636;28;19905;-77
2023/01/27 14:43:54;;;;;;;;;;;3.70;99.90;;;;;;5054792;28;19904;-78
2023/01/27 14:46:40;;;;;;;;;;;3.70;99.90;;;;;;5071561;28;19905;-78
2023/01/27 14:49:06;;;;;;;;;;;3.70;99.90;;;;;;5029758;28;19911;-79
2023/01/27 14:51:43;;;;;;;;;;;3.70;99.90;;;;;;5052254;28;19909;-78
2023/01/27 14:54:12;;;;;;;;;;;3.70;99.90;;;;;;5054399;28;19913;-87
2023/01/27 14:56:43;;;;;;;;;;;3.70;99.90;;;;;;5053624;28;19912;-79
2023/01/27 14:59:28;;;;;;;;;;;3.60;99.90;;;;;;5054263;28;20278;-81
2023/01/27 15:01:54;;;;;;;;;;;3.60;99.90;;;;;;5053709;28;19913;-78
2023/01/27 15:04:41;;;;;;;;;;;3.60;99.90;;;;;;5054079;28;19904;-78
2023/01/27 15:07:07;;;;;;;;;;;3.60;99.90;;;;;;5054156;28;19904;-78
2023/01/27 15:09:38;;;;;;;;;;;3.60;99.90;;;;;;5053923;28;19904;-79
2023/01/27 15:12:05;;;;;;;;;;;3.60;99.90;;;;;;5060882;28;19919;-78
2023/01/27 15:14:37;;;;;;;;;;;3.50;99.90;;;;;;5053352;28;19987;-78
2023/01/27 15:17:03;;;;;;;;;;;3.50;99.90;;;;;;5056655;28;19916;-78